Time;durP1;ratioP1;P1;durP2;ratioP2;P2;SDS_P1;SDS_P2;PMS_P1;PMS_P2;Temp;Humidity;BMP_temperature;BMP_pressure;BME280_temperature;BME280_humidity;BME280_pressure;Samples;Min_cycle;Max_cycle;Signal;HPM_P1;HPM_P2
2023/03/26 00:01:28;;;;;;;11.90;10.02;;;10.20;99.90;;;;;;4994508;28;20038;-63
2023/03/26 00:03:56;;;;;;;11.60;10.05;;;10.10;99.90;;;;;;4994553;28;20023;-66
2023/03/26 00:06:36;;;;;;;10.57;9.30;;;10.30;99.90;;;;;;4994681;28;20030;-66
2023/03/26 00:09:03;;;;;;;12.18;9.77;;;10.40;99.90;;;;;;4994689;28;20037;-63
2023/03/26 00:11:29;;;;;;;18.10;12.38;;;10.50;99.90;;;;;;4994905;28;20022;-65
2023/03/26 00:13:56;;;;;;;27.98;18.88;;;10.50;99.90;;;;;;4994555;28;20026;-63
2023/03/26 00:16:23;;;;;;;25.15;18.92;;;10.30;99.90;;;;;;4994492;28;20473;-63
2023/03/26 00:18:50;;;;;;;37.00;20.70;;;10.20;99.90;;;;;;4994499;28;20065;-62
2023/03/26 00:21:20;;;;;;;41.17;20.00;;;10.10;99.90;;;;;;4994461;28;20034;-62
2023/03/26 00:23:47;;;;;;;24.98;16.27;;;10.00;99.90;;;;;;4994553;28;20473;-63
2023/03/26 00:26:16;;;;;;;33.25;17.80;;;10.00;99.90;;;;;;4994377;28;20080;-61
2023/03/26 00:28:42;;;;;;;66.10;25.27;;;10.00;99.90;;;;;;4994561;28;20057;-63
2023/03/26 00:31:11;;;;;;;96.93;29.48;;;9.90;99.90;;;;;;4994310;28;20058;-64
2023/03/26 00:33:39;;;;;;;77.72;25.00;;;9.80;99.90;;;;;;4994072;28;20033;-63
2023/03/26 00:36:08;;;;;;;96.03;26.77;;;9.70;99.90;;;;;;4994167;28;20031;-63
2023/03/26 00:38:37;;;;;;;76.20;29.42;;;9.70;99.90;;;;;;4994063;28;20081;-64
2023/03/26 00:41:05;;;;;;;57.35;28.02;;;9.60;99.90;;;;;;4994212;28;20085;-66
2023/03/26 00:43:34;;;;;;;23.08;16.90;;;9.30;99.90;;;;;;4994337;28;20042;-64
2023/03/26 00:46:01;;;;;;;21.77;17.20;;;9.30;99.90;;;;;;4993936;28;20030;-66
2023/03/26 00:48:28;;;;;;;16.27;14.10;;;9.40;99.90;;;;;;4994011;28;20109;-61
2023/03/26 00:50:55;;;;;;;15.95;12.52;;;9.60;99.90;;;;;;4994000;28;20026;-61
2023/03/26 00:53:22;;;;;;;17.13;13.32;;;9.70;99.90;;;;;;4994322;28;20026;-61
2023/03/26 00:55:48;;;;;;;17.05;13.68;;;9.80;99.90;;;;;;4993968;28;20026;-62
2023/03/26 00:58:14;;;;;;;13.23;10.75;;;9.80;99.90;;;;;;4993701;28;20034;-60
2023/03/26 01:00:50;;;;;;;12.98;10.30;;;9.80;99.90;;;;;;4993753;28;20149;-61
2023/03/26 01:03:18;;;;;;;15.05;11.30;;;9.90;99.90;;;;;;4993227;28;20046;-62
2023/03/26 01:05:51;;;;;;;10.32;8.73;;;10.00;99.90;;;;;;4993839;28;20504;-61
2023/03/26 01:08:29;;;;;;;23.77;13.07;;;10.00;99.90;;;;;;4994342;28;20034;-63
2023/03/26 01:11:01;;;;;;;19.45;13.25;;;10.00;99.90;;;;;;4993744;28;20070;-61
2023/03/26 01:13:31;;;;;;;16.23;12.35;;;9.90;99.90;;;;;;4993928;28;20113;-62
2023/03/26 01:16:00;;;;;;;44.28;18.83;;;9.90;99.90;;;;;;4993600;28;20030;-65
2023/03/26 01:18:32;;;;;;;23.48;13.80;;;9.90;99.90;;;;;;4993581;28;20037;-62
2023/03/26 01:21:03;;;;;;;14.80;10.50;;;9.70;99.90;;;;;;4993850;28;20033;-63
2023/03/26 01:23:40;;;;;;;12.65;9.98;;;9.40;99.90;;;;;;4993704;28;20384;-64
2023/03/26 01:26:44;;;;;;;9.40;8.07;;;9.30;99.90;;;;;;4993704;28;20029;-61
2023/03/26 01:29:30;;;;;;;15.93;12.65;;;9.50;99.90;;;;;;4985809;28;20177;-62
2023/03/26 01:32:08;;;;;;;13.43;10.73;;;9.30;99.90;;;;;;4989636;28;20043;-63
2023/03/26 01:35:08;;;;;;;12.32;10.43;;;8.80;99.90;;;;;;4993873;28;20033;-60
2023/03/26 01:37:52;;;;;;;9.73;7.60;;;8.90;99.90;;;;;;4993612;28;20026;-60
2023/03/26 01:40:26;;;;;;;12.50;10.45;;;9.00;99.90;;;;;;4992245;28;20378;-63
2023/03/26 01:43:27;;;;;;;9.90;8.82;;;9.10;99.90;;;;;;4993549;28;20023;-60
2023/03/26 01:45:53;;;;;;;9.38;7.80;;;9.20;99.90;;;;;;4993343;28;20489;-60
2023/03/26 01:48:19;;;;;;;8.27;7.18;;;9.10;99.90;;;;;;4993496;28;20030;-60
2023/03/26 01:50:45;;;;;;;7.80;6.13;;;9.20;99.90;;;;;;4993494;28;20107;-64
2023/03/26 01:53:13;;;;;;;7.88;6.72;;;9.20;99.90;;;;;;4993730;28;20436;-63
2023/03/26 01:55:48;;;;;;;9.00;7.10;;;9.30;99.90;;;;;;4993426;28;20026;-60
2023/03/26 01:58:25;;;;;;;7.30;6.25;;;9.30;99.90;;;;;;4993586;28;20035;-62
2023/03/26 02:01:00;;;;;;;6.78;5.70;;;9.30;99.90;;;;;;4993527;28;20029;-66
2023/03/26 02:03:33;;;;;;;7.43;6.13;;;9.30;99.90;;;;;;4993193;28;20047;-65
2023/03/26 02:06:05;;;;;;;8.47;7.17;;;9.30;99.90;;;;;;4993484;28;20405;-63
2023/03/26 02:08:34;;;;;;;9.30;7.70;;;9.30;99.90;;;;;;4993326;28;20248;-64
2023/03/26 02:11:13;;;;;;;8.02;7.13;;;9.20;99.90;;;;;;4993266;28;20358;-59
2023/03/26 02:13:40;;;;;;;11.23;8.32;;;9.20;99.90;;;;;;4993172;28;20035;-60
2023/03/26 02:16:11;;;;;;;10.95;8.40;;;9.20;99.90;;;;;;4994750;28;20026;-65
2023/03/26 02:18:40;;;;;;;15.55;9.20;;;9.20;99.90;;;;;;4996654;28;20038;-63
2023/03/26 02:21:12;;;;;;;32.92;10.25;;;9.20;99.90;;;;;;4996653;28;20030;-61
2023/03/26 02:23:40;;;;;;;15.07;8.10;;;9.10;99.90;;;;;;4996560;28;20469;-64
2023/03/26 02:26:10;;;;;;;8.50;7.18;;;9.00;99.90;;;;;;4996596;28;20057;-63
2023/03/26 02:28:36;;;;;;;9.70;6.63;;;9.10;99.90;;;;;;4996457;28;20033;-63
2023/03/26 02:31:03;;;;;;;7.57;6.32;;;9.20;99.90;;;;;;4996450;28;20477;-60
2023/03/26 02:33:30;;;;;;;35.08;11.73;;;9.20;99.90;;;;;;4996758;28;20026;-62
2023/03/26 02:36:00;;;;;;;22.33;10.15;;;9.20;99.90;;;;;;4996480;28;20026;-61
2023/03/26 02:38:35;;;;;;;18.63;9.93;;;9.00;99.90;;;;;;4996311;28;20027;-60
2023/03/26 02:41:02;;;;;;;11.60;8.13;;;9.00;99.90;;;;;;4996318;28;20082;-62
2023/03/26 02:43:28;;;;;;;9.90;8.07;;;8.90;99.90;;;;;;4996045;28;20018;-61
2023/03/26 02:45:54;;;;;;;8.02;6.18;;;8.80;99.90;;;;;;4996448;28;20045;-61
2023/03/26 02:48:19;;;;;;;8.75;6.25;;;8.80;99.90;;;;;;4996242;28;20039;-64
2023/03/26 02:50:48;;;;;;;11.82;6.75;;;9.00;99.90;;;;;;4996151;28;20034;-64
2023/03/26 02:53:15;;;;;;;24.35;10.50;;;9.20;99.90;;;;;;4996408;28;20041;-62
2023/03/26 02:55:41;;;;;;;11.48;7.38;;;9.20;99.90;;;;;;4996161;28;20041;-63
2023/03/26 02:58:06;;;;;;;8.07;6.32;;;9.20;99.90;;;;;;4995793;28;20034;-61
2023/03/26 03:00:33;;;;;;;17.25;7.38;;;9.30;99.90;;;;;;4996167;28;20045;-62
2023/03/26 03:03:03;;;;;;;16.77;7.10;;;9.30;99.90;;;;;;4995797;28;20408;-60
2023/03/26 03:05:30;;;;;;;35.67;13.50;;;9.30;99.90;;;;;;4995919;28;20473;-63
2023/03/26 03:07:59;;;;;;;37.65;12.75;;;9.20;99.90;;;;;;4995662;28;20655;-64
2023/03/26 03:10:26;;;;;;;22.38;9.52;;;9.20;99.90;;;;;;4996063;28;20022;-64
2023/03/26 03:12:53;;;;;;;23.42;9.45;;;9.20;99.90;;;;;;4995785;28;20065;-62
2023/03/26 03:15:19;;;;;;;31.38;13.10;;;9.30;99.90;;;;;;4995854;28;20038;-62
2023/03/26 03:17:45;;;;;;;47.63;16.52;;;9.30;99.90;;;;;;4995631;28;20392;-61
2023/03/26 03:20:12;;;;;;;60.20;13.73;;;9.30;99.90;;;;;;4995615;28;20465;-60
2023/03/26 03:22:38;;;;;;;25.20;12.27;;;9.20;99.90;;;;;;4995730;28;20019;-63
2023/03/26 03:25:07;;;;;;;34.50;11.30;;;9.10;99.90;;;;;;4995430;28;20393;-63
2023/03/26 03:27:33;;;;;;;115.60;20.08;;;9.10;99.90;;;;;;4994880;28;20034;-62
2023/03/26 03:29:59;;;;;;;21.98;10.05;;;9.20;99.90;;;;;;4995360;28;20059;-63
2023/03/26 03:32:26;;;;;;;20.27;9.05;;;9.20;99.90;;;;;;4995357;28;20018;-61
2023/03/26 03:34:52;;;;;;;12.85;8.35;;;9.30;99.90;;;;;;4995372;28;20020;-64
2023/03/26 03:37:18;;;;;;;20.92;9.95;;;9.30;99.90;;;;;;4995120;28;20038;-62
2023/03/26 03:39:44;;;;;;;11.32;8.25;;;9.30;99.90;;;;;;4995247;28;20409;-61
2023/03/26 03:42:10;;;;;;;42.05;11.48;;;9.20;99.90;;;;;;4995000;28;20077;-61
2023/03/26 03:44:36;;;;;;;32.90;11.48;;;9.10;99.90;;;;;;4995028;28;20022;-62
2023/03/26 03:47:02;;;;;;;82.05;15.68;;;8.90;99.90;;;;;;4995189;28;20023;-62
2023/03/26 03:49:28;;;;;;;99.47;17.40;;;8.80;99.90;;;;;;4995326;28;20382;-63
2023/03/26 03:51:54;;;;;;;27.10;10.00;;;8.70;99.90;;;;;;4994956;28;20026;-62
2023/03/26 03:54:20;;;;;;;18.30;9.18;;;8.60;99.90;;;;;;4994961;28;20051;-63
2023/03/26 03:56:47;;;;;;;38.10;9.35;;;8.60;99.90;;;;;;4994688;28;20508;-61
2023/03/26 03:59:14;;;;;;;29.67;8.98;;;8.60;99.90;;;;;;4994737;28;20030;-62
2023/03/26 04:01:42;;;;;;;17.25;8.48;;;8.70;99.90;;;;;;4994765;28;20089;-63
2023/03/26 04:04:08;;;;;;;9.50;7.35;;;8.70;99.90;;;;;;4994758;28;20023;-64
2023/03/26 04:06:34;;;;;;;11.40;8.32;;;8.70;99.90;;;;;;4994658;28;20026;-64
2023/03/26 04:09:00;;;;;;;11.88;6.32;;;8.70;99.90;;;;;;4994449;28;20054;-63
2023/03/26 04:11:25;;;;;;;13.68;7.28;;;8.70;99.90;;;;;;4994642;28;20027;-62
2023/03/26 04:13:51;;;;;;;14.88;6.97;;;8.80;99.90;;;;;;4994648;28;20027;-63
2023/03/26 04:16:17;;;;;;;7.13;5.43;;;8.90;99.90;;;;;;4994456;28;20146;-63
2023/03/26 04:18:44;;;;;;;11.10;5.40;;;8.80;99.90;;;;;;4994474;28;20499;-64
2023/03/26 04:21:11;;;;;;;5.47;4.50;;;8.90;99.90;;;;;;4994576;28;20109;-62
2023/03/26 04:23:37;;;;;;;5.90;4.60;;;8.90;99.90;;;;;;4994421;28;20030;-62
2023/03/26 04:26:09;;;;;;;8.73;5.05;;;8.90;99.90;;;;;;4994395;28;20030;-63
2023/03/26 04:28:54;;;;;;;8.23;4.72;;;9.00;99.90;;;;;;4994299;28;20121;-61
2023/03/26 04:31:22;;;;;;;7.28;4.47;;;9.00;99.90;;;;;;4994658;28;20026;-64
2023/03/26 04:33:53;;;;;;;6.40;4.93;;;9.00;99.90;;;;;;4994282;28;20495;-61
2023/03/26 04:36:25;;;;;;;6.97;5.07;;;8.90;99.90;;;;;;4994198;28;20019;-61
2023/03/26 04:38:52;;;;;;;10.80;7.93;;;8.90;99.90;;;;;;4993619;28;20458;-64
2023/03/26 04:41:19;;;;;;;13.85;6.97;;;8.90;99.90;;;;;;4994104;28;20077;-63
2023/03/26 04:43:49;;;;;;;13.77;7.00;;;8.70;99.90;;;;;;4994255;28;20037;-65
2023/03/26 04:46:22;;;;;;;15.10;7.10;;;8.70;99.90;;;;;;4994191;28;20034;-64
2023/03/26 04:48:49;;;;;;;8.35;5.93;;;8.60;99.90;;;;;;4994289;28;20037;-61
2023/03/26 04:51:16;;;;;;;6.10;5.28;;;8.50;99.90;;;;;;4994082;28;20110;-62
2023/03/26 04:53:50;;;;;;;6.35;4.70;;;8.50;99.90;;;;;;4993913;28;20042;-61
2023/03/26 04:56:35;;;;;;;12.55;6.00;;;8.60;99.90;;;;;;4993796;28;20030;-63
2023/03/26 04:59:01;;;;;;;5.97;4.30;;;8.70;99.90;;;;;;4992666;28;20377;-61
2023/03/26 05:01:27;;;;;;;7.53;4.22;;;8.70;99.90;;;;;;4993646;28;20133;-64
2023/03/26 05:03:53;;;;;;;9.00;6.50;;;8.80;99.90;;;;;;4994093;28;20031;-62
2023/03/26 05:06:20;;;;;;;4.95;4.45;;;8.90;99.90;;;;;;4994148;28;20033;-63
2023/03/26 05:08:46;;;;;;;5.97;4.55;;;8.90;99.90;;;;;;4993486;28;20489;-62
2023/03/26 05:11:12;;;;;;;6.43;5.13;;;8.90;99.90;;;;;;4994007;28;20030;-61
2023/03/26 05:13:41;;;;;;;8.18;5.95;;;9.00;99.90;;;;;;4993974;28;20083;-63
2023/03/26 05:16:09;;;;;;;6.00;4.30;;;9.10;99.90;;;;;;4993698;28;20026;-64
2023/03/26 05:18:35;;;;;;;5.78;4.30;;;9.10;99.90;;;;;;4993834;28;20026;-63
2023/03/26 05:21:01;;;;;;;7.15;5.63;;;9.00;99.90;;;;;;4993783;28;20023;-62
2023/03/26 05:23:27;;;;;;;4.80;4.07;;;9.10;99.90;;;;;;4993475;28;20154;-64
2023/03/26 05:25:53;;;;;;;5.47;4.22;;;9.10;99.90;;;;;;4993851;28;20022;-62
2023/03/26 05:28:19;;;;;;;4.40;3.88;;;9.00;99.90;;;;;;4993797;28;20026;-63
2023/03/26 05:30:45;;;;;;;6.13;5.13;;;9.10;99.90;;;;;;4993668;28;20567;-62
2023/03/26 05:33:11;;;;;;;3.60;3.30;;;9.30;99.90;;;;;;4993809;28;20029;-62
2023/03/26 05:35:37;;;;;;;6.55;4.47;;;9.30;99.90;;;;;;4993587;28;20022;-63
2023/03/26 05:38:03;;;;;;;3.72;3.35;;;9.50;99.90;;;;;;4993575;28;20039;-64
2023/03/26 05:40:28;;;;;;;6.13;4.95;;;9.70;99.90;;;;;;4993514;28;20038;-62
2023/03/26 05:42:54;;;;;;;5.63;4.60;;;9.80;99.90;;;;;;4993642;28;20030;-63
2023/03/26 05:45:21;;;;;;;5.97;4.60;;;10.00;99.90;;;;;;4993467;28;20378;-63
2023/03/26 05:47:48;;;;;;;6.45;5.15;;;10.00;99.90;;;;;;4993732;28;20088;-62
2023/03/26 05:50:14;;;;;;;7.25;5.82;;;10.10;99.90;;;;;;4995421;28;20034;-60
2023/03/26 05:52:40;;;;;;;9.50;7.70;;;10.10;99.90;;;;;;4997034;28;20029;-64
2023/03/26 05:55:07;;;;;;;7.53;5.90;;;10.00;99.90;;;;;;4997121;28;20093;-64
2023/03/26 05:57:34;;;;;;;8.05;7.07;;;10.00;99.90;;;;;;4997343;28;20034;-63
2023/03/26 06:00:01;;;;;;;7.88;6.65;;;10.00;99.90;;;;;;4997441;28;20389;-64
2023/03/26 06:02:28;;;;;;;7.50;5.93;;;10.10;99.90;;;;;;4996785;28;20134;-64
2023/03/26 06:04:55;;;;;;;6.50;5.72;;;10.20;99.90;;;;;;4997119;28;20049;-63
2023/03/26 06:07:21;;;;;;;5.93;5.32;;;10.20;99.90;;;;;;4996813;28;20023;-63
2023/03/26 06:09:47;;;;;;;6.15;5.35;;;10.20;99.90;;;;;;4996981;28;20025;-64
2023/03/26 06:12:14;;;;;;;6.70;5.00;;;10.10;99.90;;;;;;4996921;28;20069;-63
2023/03/26 06:14:41;;;;;;;5.38;4.70;;;10.00;99.90;;;;;;4996991;28;20062;-62
2023/03/26 06:17:08;;;;;;;7.80;5.90;;;10.00;99.90;;;;;;4996676;28;20026;-64
2023/03/26 06:19:34;;;;;;;5.95;4.47;;;9.90;99.90;;;;;;4996436;28;20548;-62
2023/03/26 06:22:00;;;;;;;5.15;4.65;;;10.00;99.90;;;;;;4996679;28;20054;-63
2023/03/26 06:24:25;;;;;;;5.15;4.15;;;10.00;99.90;;;;;;4996937;28;20117;-63
2023/03/26 06:26:51;;;;;;;4.30;3.85;;;10.10;99.90;;;;;;4996615;28;20026;-60
2023/03/26 06:29:17;;;;;;;4.50;3.95;;;10.10;99.90;;;;;;4996555;28;20033;-62
2023/03/26 06:31:43;;;;;;;4.82;4.43;;;10.20;99.90;;;;;;4996503;28;20054;-63
2023/03/26 06:34:09;;;;;;;9.55;7.15;;;10.20;99.90;;;;;;4996535;28;20057;-64
2023/03/26 06:36:35;;;;;;;16.45;12.40;;;10.20;99.90;;;;;;4996658;28;20392;-64
2023/03/26 06:39:01;;;;;;;11.52;9.48;;;10.00;99.90;;;;;;4996371;28;20507;-63
2023/03/26 06:41:27;;;;;;;11.27;8.32;;;10.20;99.90;;;;;;4996221;28;20054;-64
2023/03/26 06:43:52;;;;;;;7.88;7.07;;;10.80;99.90;;;;;;4996323;28;20040;-64
2023/03/26 06:46:20;;;;;;;8.13;7.07;;;11.30;99.90;;;;;;4996318;28;20033;-64
2023/03/26 06:48:46;;;;;;;8.05;7.25;;;11.40;99.90;;;;;;4995997;28;20033;-61
2023/03/26 06:51:11;;;;;;;10.25;7.75;;;11.80;99.90;;;;;;4996175;28;20023;-63
2023/03/26 06:53:37;;;;;;;9.07;7.95;;;13.20;99.90;;;;;;4996153;28;20081;-62
2023/03/26 06:56:03;;;;;;;12.00;10.35;;;13.90;98.40;;;;;;4996245;28;20026;-62
2023/03/26 06:58:29;;;;;;;11.63;10.43;;;15.70;96.30;;;;;;4996119;28;20116;-63
2023/03/26 07:00:55;;;;;;;11.00;9.27;;;16.40;92.00;;;;;;4995330;28;20027;-64
2023/03/26 07:03:21;;;;;;;11.57;10.23;;;18.40;87.40;;;;;;4994213;28;20061;-65
2023/03/26 07:05:47;;;;;;;14.00;11.07;;;19.50;75.70;;;;;;4996096;28;20073;-61
2023/03/26 07:08:14;;;;;;;11.60;10.35;;;18.20;72.00;;;;;;4996097;28;20026;-61
2023/03/26 07:10:40;;;;;;;10.88;9.70;;;17.10;75.50;;;;;;4995861;28;20523;-62
2023/03/26 07:13:06;;;;;;;12.32;10.98;;;16.20;78.00;;;;;;4995668;28;20106;-65
2023/03/26 07:15:31;;;;;;;10.30;9.32;;;18.80;78.70;;;;;;4995705;28;20214;-64
2023/03/26 07:17:57;;;;;;;11.60;10.43;;;20.30;69.40;;;;;;4995440;28;20389;-61
2023/03/26 07:20:23;;;;;;;9.75;8.75;;;19.00;67.90;;;;;;4995541;28;20034;-63
2023/03/26 07:22:49;;;;;;;9.05;8.18;;;17.70;68.80;;;;;;4995523;28;20104;-64
2023/03/26 07:25:16;;;;;;;9.57;8.57;;;16.60;73.00;;;;;;4995496;28;20026;-65
2023/03/26 07:28:31;;;;;;;9.82;8.82;;;16.00;77.50;;;;;;4995421;28;20031;-62
2023/03/26 07:31:10;;;;;;;8.15;7.40;;;16.20;80.70;;;;;;4994035;28;20197;-62
2023/03/26 07:34:07;;;;;;;6.82;6.13;;;16.40;81.00;;;;;;4995164;28;20026;-63
2023/03/26 07:36:42;;;;;;;5.97;5.40;;;16.40;79.30;;;;;;4995496;28;20060;-62
2023/03/26 07:39:41;;;;;;;5.40;4.90;;;15.90;81.80;;;;;;4995206;28;20030;-62
2023/03/26 07:42:39;;;;;;;5.03;4.50;;;16.00;84.60;;;;;;4995279;28;20377;-62
2023/03/26 07:45:36;;;;;;;4.57;4.18;;;17.00;79.00;;;;;;4995138;28;20441;-62
2023/03/26 07:48:03;;;;;;;5.03;4.60;;;17.60;78.30;;;;;;4995188;28;20042;-62
2023/03/26 07:50:29;;;;;;;4.63;3.97;;;18.20;80.50;;;;;;4995340;28;20382;-63
2023/03/26 07:52:55;;;;;;;4.50;4.03;;;20.40;75.30;;;;;;4995496;28;20376;-62
2023/03/26 07:55:21;;;;;;;4.75;4.28;;;21.40;71.30;;;;;;4995180;28;20038;-65
2023/03/26 07:57:47;;;;;;;4.47;4.07;;;23.10;66.60;;;;;;4994850;28;20109;-61
2023/03/26 08:00:28;;;;;;;4.85;4.45;;;24.60;59.00;;;;;;4994794;28;20451;-61
2023/03/26 08:03:17;;;;;;;4.88;4.47;;;25.70;55.90;;;;;;4994515;28;20555;-64
2023/03/26 08:05:52;;;;;;;4.82;4.32;;;26.60;52.30;;;;;;4994706;28;20105;-63
2023/03/26 08:08:18;;;;;;;4.25;3.90;;;26.60;50.20;;;;;;4994607;28;20026;-64
2023/03/26 08:11:20;;;;;;;4.45;4.05;;;25.70;51.40;;;;;;4994657;28;20033;-64
2023/03/26 08:13:55;;;;;;;4.05;3.75;;;25.30;50.80;;;;;;4994521;28;20029;-63
2023/03/26 08:16:36;;;;;;;4.40;4.10;;;23.70;52.10;;;;;;4994413;28;20156;-64
2023/03/26 08:19:06;;;;;;;4.53;4.20;;;22.10;55.50;;;;;;4994498;28;20045;-63
2023/03/26 08:22:01;;;;;;;4.10;3.80;;;20.90;55.80;;;;;;4994466;28;20358;-62
2023/03/26 08:25:01;;;;;;;4.32;3.92;;;20.00;57.60;;;;;;4985162;28;20031;-62
2023/03/26 08:27:42;;;;;;;4.85;4.40;;;20.40;58.10;;;;;;4994433;28;20022;-63
2023/03/26 08:30:20;;;;;;;4.85;4.45;;;22.70;56.70;;;;;;4994331;28;20026;-65
2023/03/26 08:33:11;;;;;;;5.07;4.68;;;24.40;57.10;;;;;;4994343;28;20024;-65
2023/03/26 08:35:41;;;;;;;5.72;5.13;;;25.70;50.80;;;;;;4991535;28;20030;-63
2023/03/26 08:38:08;;;;;;;4.55;4.15;;;25.60;51.30;;;;;;4992826;28;20452;-63
2023/03/26 08:40:52;;;;;;;4.78;4.32;;;25.10;50.90;;;;;;4994230;28;20022;-62
2023/03/26 08:43:56;;;;;;;5.40;4.57;;;25.20;49.30;;;;;;4994136;28;20023;-61
2023/03/26 08:47:13;;;;;;;4.55;4.20;;;24.30;51.60;;;;;;4994035;28;20018;-63
2023/03/26 08:49:57;;;;;;;4.30;4.00;;;23.00;53.70;;;;;;4992512;28;20034;-64
2023/03/26 08:52:50;;;;;;;4.60;4.20;;;22.30;56.70;;;;;;4994049;28;20023;-61
2023/03/26 08:55:49;;;;;;;5.85;5.32;;;23.00;55.80;;;;;;4994123;28;20024;-61
2023/03/26 08:58:30;;;;;;;5.90;5.40;;;23.70;51.80;;;;;;4993629;28;20517;-63
2023/03/26 09:01:20;;;;;;;5.28;4.78;;;23.70;51.10;;;;;;4993747;28;20030;-63
2023/03/26 09:04:16;;;;;;;5.80;5.30;;;23.90;52.30;;;;;;4993862;28;20041;-62
2023/03/26 09:07:23;;;;;;;5.28;4.78;;;24.00;50.90;;;;;;4993856;28;20466;-60
2023/03/26 09:10:19;;;;;;;5.03;4.53;;;24.10;50.80;;;;;;4993750;28;20076;-63
2023/03/26 09:13:21;;;;;;;4.93;4.53;;;24.30;50.20;;;;;;4993858;28;20089;-63
2023/03/26 09:15:59;;;;;;;3.28;3.08;;;24.40;51.10;;;;;;4993668;28;20022;-63
2023/03/26 09:18:56;;;;;;;2.78;2.50;;;24.50;53.10;;;;;;4993866;28;20481;-62
2023/03/26 09:21:44;;;;;;;3.60;2.70;;;24.10;49.10;;;;;;4993738;28;20023;-63
2023/03/26 09:24:24;;;;;;;2.55;2.35;;;23.90;52.20;;;;;;4994004;28;20086;-64
2023/03/26 09:27:06;;;;;;;2.08;1.90;;;23.90;49.40;;;;;;4997703;28;20026;-62
2023/03/26 09:29:47;;;;;;;2.17;1.95;;;24.20;49.80;;;;;;4997566;28;20026;-62
2023/03/26 09:32:30;;;;;;;2.78;2.58;;;24.20;48.60;;;;;;4997652;28;20033;-64
2023/03/26 09:34:55;;;;;;;2.60;2.40;;;24.20;50.90;;;;;;4997531;28;20015;-62
2023/03/26 09:37:33;;;;;;;2.17;1.98;;;24.10;50.90;;;;;;4997580;28;20033;-61
2023/03/26 09:40:16;;;;;;;2.28;2.08;;;24.10;45.50;;;;;;4997549;28;20034;-63
2023/03/26 09:43:00;;;;;;;1.60;1.50;;;24.30;46.20;;;;;;4997312;28;20026;-62
2023/03/26 09:46:04;;;;;;;1.15;1.08;;;24.30;45.50;;;;;;4997302;28;20034;-63
2023/03/26 09:48:42;;;;;;;1.88;1.33;;;24.60;45.00;;;;;;4975753;28;20034;-65
2023/03/26 09:51:08;;;;;;;1.30;1.20;;;24.90;43.70;;;;;;4994791;28;20030;-64
2023/03/26 09:53:50;;;;;;;2.22;1.45;;;24.60;42.20;;;;;;4997259;28;20049;-63
2023/03/26 09:56:38;;;;;;;1.50;1.40;;;24.30;41.70;;;;;;4997168;28;20082;-62
2023/03/26 09:59:21;;;;;;;1.05;0.93;;;24.40;45.30;;;;;;4996926;28;20030;-62
2023/03/26 10:02:17;;;;;;;0.90;0.70;;;24.90;44.40;;;;;;4996977;28;20101;-63
2023/03/26 10:05:20;;;;;;;1.73;0.90;;;25.00;40.00;;;;;;4997033;28;20022;-62
2023/03/26 10:07:51;;;;;;;0.90;0.90;;;24.50;40.40;;;;;;4996952;28;20026;-63
2023/03/26 10:10:58;;;;;;;0.70;0.70;;;24.80;49.20;;;;;;4997060;28;20023;-63
2023/03/26 10:13:54;;;;;;;1.30;1.20;;;25.30;43.40;;;;;;4979774;28;20037;-64
2023/03/26 10:16:24;;;;;;;1.40;1.10;;;25.20;41.10;;;;;;4996887;28;20441;-64
2023/03/26 10:19:12;;;;;;;2.03;0.70;;;25.10;40.50;;;;;;4996685;28;20117;-65
2023/03/26 10:21:50;;;;;;;0.88;0.70;;;25.00;43.00;;;;;;4996881;28;20073;-63
2023/03/26 10:24:21;;;;;;;0.63;0.63;;;25.60;41.70;;;;;;4996924;28;20366;-62
2023/03/26 10:27:11;;;;;;;0.93;0.68;;;25.70;36.60;;;;;;4996439;28;20026;-62
2023/03/26 10:29:43;;;;;;;1.52;1.10;;;26.00;37.00;;;;;;4996614;28;20030;-63
2023/03/26 10:32:43;;;;;;;0.60;0.50;;;26.30;33.00;;;;;;4996657;28;20565;-66
2023/03/26 10:35:24;;;;;;;0.70;0.50;;;26.70;32.00;;;;;;4996337;28;20362;-65
2023/03/26 10:38:13;;;;;;;0.60;0.60;;;26.80;33.10;;;;;;4995657;28;20030;-64
2023/03/26 10:41:04;;;;;;;1.08;1.00;;;26.90;33.10;;;;;;4996196;28;20033;-62
2023/03/26 10:44:04;;;;;;;0.40;0.40;;;27.00;30.30;;;;;;4996534;28;20065;-63
2023/03/26 10:47:08;;;;;;;0.40;0.40;;;27.00;31.50;;;;;;4996270;28;20022;-63
2023/03/26 10:49:39;;;;;;;0.60;0.60;;;26.70;29.50;;;;;;4996299;28;20041;-61
2023/03/26 10:52:15;;;;;;;0.65;0.65;;;27.00;32.70;;;;;;4996184;28;20031;-63
2023/03/26 10:55:02;;;;;;;0.52;0.50;;;27.30;29.70;;;;;;4996056;28;20026;-63
2023/03/26 10:57:43;;;;;;;1.20;0.80;;;27.40;31.00;;;;;;4996153;28;20491;-63
2023/03/26 11:00:27;;;;;;;0.93;0.70;;;27.30;30.80;;;;;;4996101;28;20022;-65
2023/03/26 11:03:31;;;;;;;0.90;0.85;;;27.40;31.20;;;;;;4995887;28;20449;-62
2023/03/26 11:05:59;;;;;;;;;;;27.90;30.00;;;;;;4996453;28;20061;-62
2023/03/26 11:08:49;;;;;;;1.08;0.73;;;27.20;28.60;;;;;;4996209;28;19905;-63
2023/03/26 11:11:21;;;;;;;0.70;0.50;;;27.10;30.30;;;;;;4995637;28;20405;-62
2023/03/26 11:14:30;;;;;;;0.90;0.60;;;27.20;29.30;;;;;;4995844;28;20076;-63
2023/03/26 11:17:14;;;;;;;1.20;0.93;;;26.80;31.40;;;;;;4974237;28;20065;-65
2023/03/26 11:20:13;;;;;;;0.63;0.60;;;26.70;30.90;;;;;;4958220;28;20374;-63
2023/03/26 11:23:05;;;;;;;0.85;0.75;;;26.40;30.90;;;;;;4977134;28;20030;-61
2023/03/26 11:25:50;;;;;;;1.20;1.10;;;26.40;32.50;;;;;;4987027;28;20481;-63
2023/03/26 11:28:30;;;;;;;1.00;0.80;;;26.30;29.50;;;;;;4995496;28;20023;-63
2023/03/26 11:31:03;;;;;;;0.93;0.80;;;26.10;35.90;;;;;;4995356;28;20022;-63
2023/03/26 11:33:36;;;;;;;0.60;0.60;;;26.30;31.10;;;;;;4995453;28;20105;-65
2023/03/26 11:36:09;;;;;;;1.20;0.93;;;26.30;31.00;;;;;;4995310;28;20437;-63
2023/03/26 11:38:43;;;;;;;1.20;1.10;;;26.30;30.10;;;;;;4995434;28;20035;-65
2023/03/26 11:41:31;;;;;;;2.08;1.92;;;26.20;33.00;;;;;;4995513;28;20113;-64
2023/03/26 11:44:04;;;;;;;2.05;1.80;;;26.00;34.40;;;;;;4995138;28;20388;-62
2023/03/26 11:46:34;;;;;;;2.85;2.55;;;26.20;34.20;;;;;;4995459;28;20037;-63
2023/03/26 11:49:05;;;;;;;1.10;1.00;;;26.70;31.00;;;;;;4994874;28;20084;-65
2023/03/26 11:51:36;;;;;;;0.68;0.68;;;26.80;32.60;;;;;;4995057;28;20030;-62
2023/03/26 11:54:04;;;;;;;0.52;0.50;;;26.80;34.10;;;;;;4995056;28;20049;-62
2023/03/26 11:56:44;;;;;;;0.60;0.60;;;26.50;31.80;;;;;;4995322;28;20106;-62
2023/03/26 11:59:11;;;;;;;0.60;0.60;;;26.30;32.80;;;;;;4994869;28;20050;-61
2023/03/26 12:01:57;;;;;;;0.98;0.98;;;26.80;33.30;;;;;;4994573;28;20058;-65
2023/03/26 12:04:36;;;;;;;0.57;0.38;;;27.00;31.00;;;;;;4994740;28;20037;-62
2023/03/26 12:07:17;;;;;;;0.20;0.20;;;26.90;33.00;;;;;;4994902;28;20041;-64
2023/03/26 12:09:56;;;;;;;0.30;0.30;;;26.90;31.50;;;;;;4994380;28;20027;-64
2023/03/26 12:12:28;;;;;;;0.30;0.30;;;27.10;34.80;;;;;;4994776;28;20018;-62
2023/03/26 12:14:54;;;;;;;0.45;0.30;;;27.50;33.90;;;;;;4994591;28;20404;-65
2023/03/26 12:17:30;;;;;;;0.40;0.40;;;27.90;32.60;;;;;;4994543;28;20035;-61
2023/03/26 12:19:57;;;;;;;0.70;0.68;;;28.10;32.30;;;;;;4994599;28;20030;-63
2023/03/26 12:22:36;;;;;;;0.95;0.40;;;28.30;31.60;;;;;;4994220;28;20027;-61
2023/03/26 12:25:17;;;;;;;0.50;0.43;;;28.10;31.30;;;;;;4994447;28;20049;-63
2023/03/26 12:27:48;;;;;;;0.30;0.30;;;27.80;32.30;;;;;;4994360;28;20049;-64
2023/03/26 12:30:36;;;;;;;0.50;0.50;;;27.70;31.20;;;;;;4994401;28;20121;-61
2023/03/26 12:33:13;;;;;;;0.60;0.60;;;28.20;31.50;;;;;;4988142;28;20324;-65
2023/03/26 12:35:39;;;;;;;0.60;0.60;;;28.60;33.30;;;;;;4994380;28;20031;-65
2023/03/26 12:38:32;;;;;;;0.60;0.60;;;28.80;34.30;;;;;;4994190;28;20121;-62
2023/03/26 12:41:09;;;;;;;0.50;0.50;;;29.10;30.40;;;;;;4994160;28;20069;-62
2023/03/26 12:43:53;;;;;;;0.77;0.50;;;28.90;31.70;;;;;;4994102;28;20026;-61
2023/03/26 12:46:31;;;;;;;0.30;0.30;;;28.90;30.90;;;;;;4994187;28;20030;-65
2023/03/26 12:49:04;;;;;;;0.40;0.40;;;28.50;31.30;;;;;;4994136;28;20027;-65
2023/03/26 12:52:17;;;;;;;0.50;0.50;;;28.20;34.40;;;;;;4992060;28;20461;-63
2023/03/26 12:54:48;;;;;;;;;;;28.10;30.10;;;;;;4988791;28;20568;-63
2023/03/26 12:57:21;;;;;;;0.65;0.57;;;27.80;34.80;;;;;;4992270;28;19997;-60
2023/03/26 13:00:08;;;;;;;;;;;27.90;31.70;;;;;;4992667;28;20129;-62
2023/03/26 13:02:51;;;;;;;0.60;0.50;;;27.80;32.10;;;;;;4992879;28;20008;-63
2023/03/26 13:05:29;;;;;;;0.38;0.38;;;28.20;30.40;;;;;;4993556;28;20026;-60
2023/03/26 13:08:01;;;;;;;0.47;0.40;;;28.40;33.90;;;;;;4993670;28;20069;-65
2023/03/26 13:11:07;;;;;;;0.40;0.40;;;29.00;31.30;;;;;;4993900;28;20592;-62
2023/03/26 13:14:00;;;;;;;0.75;0.50;;;29.30;31.70;;;;;;4971353;28;20362;-63
2023/03/26 13:16:41;;;;;;;0.40;0.40;;;29.30;32.50;;;;;;4992133;28;20516;-64
2023/03/26 13:19:16;;;;;;;0.50;0.50;;;29.40;29.80;;;;;;4993634;28;20117;-63
2023/03/26 13:21:57;;;;;;;0.63;0.50;;;29.00;31.60;;;;;;4993629;28;20018;-62
2023/03/26 13:24:29;;;;;;;0.43;0.38;;;28.50;36.50;;;;;;4993685;28;20025;-65